Time;durP1;ratioP1;P1;durP2;ratioP2;P2;SDS_P1;SDS_P2;PMS_P1;PMS_P2;Temp;Humidity;BMP_temperature;BMP_pressure;BME280_temperature;BME280_humidity;BME280_pressure;Samples;Min_cycle;Max_cycle;Signal;HPM_P1;HPM_P2
2021/12/26 00:01:05;;;;;;;2.80;1.70;;;;;;;;;;5050019;28;44016;-78
2021/12/26 00:03:33;;;;;;;3.67;1.67;;;;;;;;;;5049986;28;42582;-78
2021/12/26 00:06:03;;;;;;;3.08;1.92;;;;;;;;;;5049520;28;43885;-78
2021/12/26 00:08:30;;;;;;;5.07;2.17;;;;;;;;;;5049560;28;44328;-78
2021/12/26 00:10:56;;;;;;;4.65;2.13;;;;;;;;;;5049876;28;45287;-78
2021/12/26 00:13:23;;;;;;;3.50;1.92;;;;;;;;;;5048913;28;44829;-78
2021/12/26 00:15:50;;;;;;;2.15;1.63;;;;;;;;;;5051885;28;43631;-78
2021/12/26 00:18:17;;;;;;;3.45;1.75;;;;;;;;;;5052794;28;45015;-77
2021/12/26 00:20:45;;;;;;;2.85;1.83;;;;;;;;;;5051955;28;44799;-78
2021/12/26 00:23:12;;;;;;;2.53;1.60;;;;;;;;;;5043154;28;45612;-78
2021/12/26 00:25:39;;;;;;;3.45;2.15;;;;;;;;;;5032322;28;43171;-78
2021/12/26 00:28:05;;;;;;;3.22;1.95;;;;;;;;;;5032860;28;42883;-78
2021/12/26 00:30:32;;;;;;;3.80;1.92;;;;;;;;;;5033013;28;44682;-77
2021/12/26 00:32:59;;;;;;;4.53;1.80;;;;;;;;;;5032099;28;42807;-77
2021/12/26 00:35:26;;;;;;;3.30;1.73;;;;;;;;;;5033308;28;42198;-78
2021/12/26 00:37:53;;;;;;;2.88;1.95;;;;;;;;;;5032386;28;45157;-77
2021/12/26 00:40:20;;;;;;;2.60;1.45;;;;;;;;;;5032576;28;43816;-78
2021/12/26 00:42:47;;;;;;;2.20;1.48;;;;;;;;;;5037602;28;43598;-78
2021/12/26 00:45:15;;;;;;;3.55;1.48;;;;;;;;;;5052332;28;45991;-78
2021/12/26 00:47:41;;;;;;;6.10;1.83;;;;;;;;;;5051336;28;43900;-78
2021/12/26 00:50:10;;;;;;;2.45;1.80;;;;;;;;;;5053114;28;43659;-78
2021/12/26 00:52:36;;;;;;;1.95;1.58;;;;;;;;;;5052116;28;43520;-77
2021/12/26 00:55:06;;;;;;;3.03;1.60;;;;;;;;;;5052515;28;43077;-77
2021/12/26 00:57:32;;;;;;;2.50;1.55;;;;;;;;;;5052166;28;42962;-77
2021/12/26 00:59:59;;;;;;;4.35;2.00;;;;;;;;;;5052700;28;44862;-78
2021/12/26 01:02:26;;;;;;;4.00;1.80;;;;;;;;;;5051063;28;41524;-78
2021/12/26 01:04:53;;;;;;;2.50;1.65;;;;;;;;;;5052064;28;45024;-78
2021/12/26 01:10:06;;;;;;;3.30;1.80;;;;;;;;;;5050736;28;41871;-78
2021/12/26 01:12:33;;;;;;;2.72;1.80;;;;;;;;;;5050746;28;45009;-78
2021/12/26 01:15:05;;;;;;;1.70;1.38;;;;;;;;;;5050498;28;44904;-77
2021/12/26 01:17:32;;;;;;;3.05;1.58;;;;;;;;;;5050635;28;42614;-78
2021/12/26 01:19:58;;;;;;;1.50;1.40;;;;;;;;;;5051403;28;44782;-78
2021/12/26 01:22:26;;;;;;;4.80;2.10;;;;;;;;;;5047107;28;43586;-78
2021/12/26 01:24:55;;;;;;;3.22;1.83;;;;;;;;;;5031361;28;43954;-78
2021/12/26 01:27:23;;;;;;;3.35;1.77;;;;;;;;;;5029959;28;44088;-78
2021/12/26 01:29:50;;;;;;;3.92;1.80;;;;;;;;;;5030494;28;44714;-79
2021/12/26 01:32:17;;;;;;;2.65;1.63;;;;;;;;;;5030929;28;44222;-78
2021/12/26 01:34:45;;;;;;;2.22;1.67;;;;;;;;;;5030311;28;45050;-79
2021/12/26 01:37:12;;;;;;;3.80;1.92;;;;;;;;;;5029542;28;45903;-78
2021/12/26 01:39:39;;;;;;;4.35;1.60;;;;;;;;;;5031808;28;43921;-77
2021/12/26 01:42:08;;;;;;;3.40;2.13;;;;;;;;;;5030163;28;44757;-78
2021/12/26 01:44:35;;;;;;;4.32;1.98;;;;;;;;;;5030402;28;42967;-79
2021/12/26 01:47:02;;;;;;;2.35;1.70;;;;;;;;;;5030078;28;44942;-78
2021/12/26 01:49:31;;;;;;;4.85;2.03;;;;;;;;;;5030860;28;43613;-78
2021/12/26 01:52:00;;;;;;;4.72;1.95;;;;;;;;;;5029489;28;43072;-78
2021/12/26 01:54:31;;;;;;;;;;;;;;;;;;5032053;28;43443;-77
2021/12/26 01:56:59;;;;;;;3.85;1.80;;;;;;;;;;5029827;28;43722;-77
2021/12/26 01:59:26;;;;;;;;;;;;;;;;;;5031286;28;43189;-78
2021/12/26 02:01:56;;;;;;;1.80;1.50;;;;;;;;;;5030299;28;43043;-78
2021/12/26 02:04:26;;;;;;;3.10;1.65;;;;;;;;;;5029505;28;44939;-77
2021/12/26 02:06:52;;;;;;;2.72;1.73;;;;;;;;;;5030028;28;43805;-77
2021/12/26 02:09:19;;;;;;;4.43;1.50;;;;;;;;;;5030335;28;44702;-78
2021/12/26 02:11:46;;;;;;;2.53;1.65;;;;;;;;;;4993264;28;1034123;-78
2021/12/26 02:14:12;;;;;;;2.63;1.80;;;;;;;;;;5031616;28;43974;-77
2021/12/26 02:16:40;;;;;;;2.35;1.65;;;;;;;;;;5031074;28;45350;-78
2021/12/26 02:19:07;;;;;;;2.63;1.40;;;;;;;;;;5030825;28;45031;-78
2021/12/26 02:24:56;;;;;;;;;;;;;;;;;;5049978;28;42624;-78
2021/12/26 02:29:45;;;;;;;2.95;1.75;;;;;;;;;;5050669;28;42543;-78
2021/12/26 02:32:11;;;;;;;6.35;1.45;;;;;;;;;;5049205;28;42952;-78
2021/12/26 02:34:38;;;;;;;2.00;1.30;;;;;;;;;;5050936;28;44860;-78
2021/12/26 02:37:05;;;;;;;5.28;1.60;;;;;;;;;;5050075;28;41061;-78
2021/12/26 02:39:32;;;;;;;3.65;1.55;;;;;;;;;;5049929;28;44257;-78
2021/12/26 02:42:00;;;;;;;2.25;1.50;;;;;;;;;;5050722;28;43868;-78
2021/12/26 02:44:26;;;;;;;2.42;1.58;;;;;;;;;;5032887;28;42631;-78
2021/12/26 02:46:53;;;;;;;2.28;1.52;;;;;;;;;;5029887;28;44807;-78
2021/12/26 02:49:23;;;;;;;1.73;1.23;;;;;;;;;;5030401;28;45049;-78
2021/12/26 02:51:51;;;;;;;2.15;1.60;;;;;;;;;;5030326;28;43083;-78
2021/12/26 02:54:18;;;;;;;2.70;1.50;;;;;;;;;;5030263;28;44832;-78
2021/12/26 02:56:45;;;;;;;2.08;1.45;;;;;;;;;;5030207;28;43671;-79
2021/12/26 02:59:11;;;;;;;3.80;1.95;;;;;;;;;;5030881;28;42387;-78
2021/12/26 03:01:38;;;;;;;4.03;1.70;;;;;;;;;;5029798;28;43075;-78
2021/12/26 03:04:05;;;;;;;2.25;1.52;;;;;;;;;;5030516;28;42629;-78
2021/12/26 03:06:40;;;;;;;2.40;1.48;;;;;;;;;;5030537;28;42943;-78
2021/12/26 03:09:11;;;;;;;3.17;1.77;;;;;;;;;;5029688;28;43348;-78
2021/12/26 03:11:39;;;;;;;2.58;1.50;;;;;;;;;;5029882;28;44962;-77
2021/12/26 03:14:06;;;;;;;2.33;1.60;;;;;;;;;;5030345;28;42888;-78
2021/12/26 03:16:33;;;;;;;3.63;1.55;;;;;;;;;;5029755;28;43620;-78
2021/12/26 03:19:00;;;;;;;3.30;1.60;;;;;;;;;;5030493;28;42998;-78
2021/12/26 03:21:27;;;;;;;2.50;1.48;;;;;;;;;;5029368;28;43843;-78
2021/12/26 03:23:55;;;;;;;2.55;1.45;;;;;;;;;;5045026;28;43876;-78
2021/12/26 03:26:22;;;;;;;2.13;1.50;;;;;;;;;;5050082;28;45360;-78
2021/12/26 03:28:49;;;;;;;2.40;1.38;;;;;;;;;;5049690;28;43841;-78
2021/12/26 03:31:15;;;;;;;2.97;1.63;;;;;;;;;;5050042;28;44473;-78
2021/12/26 03:33:42;;;;;;;2.50;1.33;;;;;;;;;;5050294;28;43970;-78
2021/12/26 03:36:09;;;;;;;2.95;1.88;;;;;;;;;;5048916;28;44534;-78
2021/12/26 03:38:37;;;;;;;4.00;1.60;;;;;;;;;;5049458;28;45181;-78
2021/12/26 03:41:03;;;;;;;1.90;1.20;;;;;;;;;;5050275;28;43137;-78
2021/12/26 03:43:30;;;;;;;2.30;1.50;;;;;;;;;;5038593;28;44703;-78
2021/12/26 03:45:57;;;;;;;1.48;1.38;;;;;;;;;;5030311;28;43947;-78
2021/12/26 03:48:25;;;;;;;2.05;1.60;;;;;;;;;;5029849;28;42898;-78
2021/12/26 03:50:53;;;;;;;3.45;1.77;;;;;;;;;;5029866;28;44725;-77
2021/12/26 03:53:20;;;;;;;2.35;1.52;;;;;;;;;;5029582;28;44973;-79
2021/12/26 03:55:47;;;;;;;1.83;1.45;;;;;;;;;;5029965;28;44686;-78
2021/12/26 03:58:14;;;;;;;2.03;1.40;;;;;;;;;;5028887;28;44976;-78
2021/12/26 04:00:41;;;;;;;1.88;1.30;;;;;;;;;;5030223;28;44868;-78
2021/12/26 04:03:08;;;;;;;1.42;1.30;;;;;;;;;;5028545;28;43662;-78
2021/12/26 04:05:35;;;;;;;3.30;1.77;;;;;;;;;;5029337;28;43893;-79
2021/12/26 04:08:03;;;;;;;3.78;1.40;;;;;;;;;;5028913;28;42889;-78
2021/12/26 04:10:30;;;;;;;3.63;1.55;;;;;;;;;;5029521;28;42661;-78
2021/12/26 04:12:58;;;;;;;2.35;1.58;;;;;;;;;;5029186;28;43019;-78
2021/12/26 04:15:28;;;;;;;3.95;1.80;;;;;;;;;;5030300;28;42611;-79
2021/12/26 04:17:57;;;;;;;1.70;1.45;;;;;;;;;;5028468;28;44830;-79
2021/12/26 04:20:24;;;;;;;5.32;1.77;;;;;;;;;;5029517;28;43900;-79
2021/12/26 04:22:51;;;;;;;2.95;1.73;;;;;;;;;;5035352;28;42616;-78
2021/12/26 04:25:18;;;;;;;4.65;1.15;;;;;;;;;;5049394;28;42916;-79
2021/12/26 04:27:45;;;;;;;2.63;1.90;;;;;;;;;;5048726;28;44456;-78
2021/12/26 04:30:13;;;;;;;2.95;1.63;;;;;;;;;;5049761;28;45284;-78
2021/12/26 04:32:39;;;;;;;4.20;1.98;;;;;;;;;;5048383;28;42949;-78
2021/12/26 04:35:07;;;;;;;2.88;1.67;;;;;;;;;;5049592;28;37431;-78
2021/12/26 04:37:34;;;;;;;3.35;1.40;;;;;;;;;;5048993;28;45004;-78
2021/12/26 04:40:02;;;;;;;2.25;1.40;;;;;;;;;;5048783;28;42900;-79
2021/12/26 04:42:29;;;;;;;2.70;1.50;;;;;;;;;;5046123;28;44660;-78
2021/12/26 04:44:56;;;;;;;2.67;1.48;;;;;;;;;;5029296;28;41597;-79
2021/12/26 04:47:23;;;;;;;6.53;1.38;;;;;;;;;;5027489;28;44815;-78
2021/12/26 04:49:50;;;;;;;6.65;1.80;;;;;;;;;;5028823;28;42625;-78
2021/12/26 04:52:16;;;;;;;1.58;1.30;;;;;;;;;;5027914;28;43895;-78
2021/12/26 04:54:43;;;;;;;4.95;1.83;;;;;;;;;;5028962;28;44873;-78
2021/12/26 04:57:10;;;;;;;3.40;1.90;;;;;;;;;;5028317;28;43970;-79
2021/12/26 04:59:36;;;;;;;1.85;1.45;;;;;;;;;;5028718;28;43903;-78
2021/12/26 05:02:03;;;;;;;2.35;1.58;;;;;;;;;;5028377;28;43654;-78
2021/12/26 05:04:30;;;;;;;1.38;1.23;;;;;;;;;;5030910;28;43855;-78
2021/12/26 05:06:56;;;;;;;1.92;1.45;;;;;;;;;;5029520;28;44147;-78
2021/12/26 05:09:23;;;;;;;3.03;1.55;;;;;;;;;;5031094;28;42693;-78
2021/12/26 05:11:50;;;;;;;2.33;1.45;;;;;;;;;;5031816;28;44910;-79
2021/12/26 05:14:17;;;;;;;2.58;1.27;;;;;;;;;;5031055;28;42995;-78
2021/12/26 05:16:43;;;;;;;3.78;1.90;;;;;;;;;;5031798;28;44719;-79
2021/12/26 05:19:10;;;;;;;1.75;1.40;;;;;;;;;;5032512;28;42979;-79
2021/12/26 05:21:37;;;;;;;3.50;1.52;;;;;;;;;;5030595;28;43786;-78
2021/12/26 05:24:04;;;;;;;2.67;1.55;;;;;;;;;;5048106;28;42899;-79
2021/12/26 05:26:30;;;;;;;6.32;1.67;;;;;;;;;;5051664;28;42886;-78
2021/12/26 05:28:57;;;;;;;2.13;1.60;;;;;;;;;;5051496;28;44699;-78
2021/12/26 05:31:24;;;;;;;1.98;1.65;;;;;;;;;;5051619;28;44912;-78
2021/12/26 05:33:50;;;;;;;3.90;1.48;;;;;;;;;;5052016;28;44940;-79
2021/12/26 05:36:17;;;;;;;1.50;1.30;;;;;;;;;;5051210;28;44925;-79
2021/12/26 05:38:44;;;;;;;3.40;1.88;;;;;;;;;;5052504;28;43938;-78
2021/12/26 05:41:10;;;;;;;2.20;1.55;;;;;;;;;;5051277;28;44849;-78
2021/12/26 05:43:37;;;;;;;2.15;1.80;;;;;;;;;;5038831;28;43940;-78
2021/12/26 05:46:04;;;;;;;2.75;1.30;;;;;;;;;;5032047;28;44817;-78
2021/12/26 05:48:30;;;;;;;3.25;1.45;;;;;;;;;;5032031;28;44771;-78
2021/12/26 05:50:57;;;;;;;2.47;1.50;;;;;;;;;;5031487;28;45241;-78
2021/12/26 05:53:24;;;;;;;3.78;1.80;;;;;;;;;;5031130;28;42779;-78
2021/12/26 05:55:51;;;;;;;2.65;1.50;;;;;;;;;;5031895;28;44704;-78
2021/12/26 05:58:18;;;;;;;2.55;1.40;;;;;;;;;;5031486;28;20077;-79
2021/12/26 06:00:44;;;;;;;1.98;1.60;;;;;;;;;;5032315;28;42961;-79
2021/12/26 06:03:11;;;;;;;3.28;1.75;;;;;;;;;;5030275;28;43912;-78
2021/12/26 06:05:38;;;;;;;4.88;1.60;;;;;;;;;;5031162;28;45110;-79
2021/12/26 06:08:05;;;;;;;2.75;1.45;;;;;;;;;;5030773;28;44619;-79
2021/12/26 06:10:31;;;;;;;3.10;1.52;;;;;;;;;;5030787;28;43968;-78
2021/12/26 06:12:58;;;;;;;2.58;1.60;;;;;;;;;;5029540;28;44875;-79
2021/12/26 06:15:25;;;;;;;2.85;1.50;;;;;;;;;;5031547;28;43604;-79
2021/12/26 06:17:51;;;;;;;3.90;1.58;;;;;;;;;;5030393;28;44015;-78
2021/12/26 06:20:18;;;;;;;1.77;1.38;;;;;;;;;;5031127;28;42874;-78
2021/12/26 06:22:45;;;;;;;2.80;1.50;;;;;;;;;;5036346;28;44665;-78
2021/12/26 06:25:12;;;;;;;3.60;2.05;;;;;;;;;;5050869;28;42823;-78
2021/12/26 06:27:39;;;;;;;2.47;1.25;;;;;;;;;;5050552;28;44639;-78
2021/12/26 06:30:07;;;;;;;2.75;1.63;;;;;;;;;;5050784;28;43871;-78
2021/12/26 06:32:33;;;;;;;2.15;1.70;;;;;;;;;;5050341;28;45243;-78
2021/12/26 06:35:01;;;;;;;1.60;1.42;;;;;;;;;;5051448;28;42618;-78
2021/12/26 06:37:28;;;;;;;3.85;1.50;;;;;;;;;;5050452;28;43842;-78
2021/12/26 06:39:55;;;;;;;1.83;1.30;;;;;;;;;;5050339;28;44937;-79
2021/12/26 06:42:22;;;;;;;2.80;1.35;;;;;;;;;;5049286;28;44656;-78
2021/12/26 06:44:49;;;;;;;2.08;1.17;;;;;;;;;;5030985;28;44973;-77
2021/12/26 06:47:17;;;;;;;2.40;1.92;;;;;;;;;;5029194;28;42647;-78
2021/12/26 06:49:44;;;;;;;1.40;1.20;;;;;;;;;;5031853;28;41881;-78
2021/12/26 06:52:10;;;;;;;2.90;1.73;;;;;;;;;;5030142;28;42897;-78
2021/12/26 06:54:38;;;;;;;2.97;1.65;;;;;;;;;;5029510;28;42424;-77
2021/12/26 06:57:05;;;;;;;2.95;1.55;;;;;;;;;;5030453;28;43751;-78
2021/12/26 06:59:32;;;;;;;3.95;1.45;;;;;;;;;;5030088;28;44906;-78
2021/12/26 07:01:59;;;;;;;1.90;1.45;;;;;;;;;;5030361;28;44664;-78
2021/12/26 07:04:26;;;;;;;2.85;1.70;;;;;;;;;;5031107;28;44090;-78
2021/12/26 07:06:52;;;;;;;2.75;1.30;;;;;;;;;;5029318;28;42639;-78
2021/12/26 07:09:19;;;;;;;2.08;1.17;;;;;;;;;;5030888;28;42914;-78
2021/12/26 07:11:46;;;;;;;2.55;1.58;;;;;;;;;;5029939;28;44995;-77
2021/12/26 07:14:13;;;;;;;2.08;1.67;;;;;;;;;;5030087;28;44694;-78
2021/12/26 07:16:40;;;;;;;2.72;1.63;;;;;;;;;;5029828;28;45330;-78
2021/12/26 07:19:07;;;;;;;3.17;1.38;;;;;;;;;;5030004;28;34021;-78
2021/12/26 07:21:34;;;;;;;3.55;1.70;;;;;;;;;;5029888;28;45578;-78
2021/12/26 07:24:03;;;;;;;2.40;1.60;;;;;;;;;;5046048;28;44064;-78
2021/12/26 07:26:30;;;;;;;2.85;1.80;;;;;;;;;;5049886;28;42888;-78
2021/12/26 07:28:56;;;;;;;2.72;1.65;;;;;;;;;;5049789;28;36599;-78
2021/12/26 07:31:23;;;;;;;3.38;1.70;;;;;;;;;;5049929;28;43889;-77
2021/12/26 07:33:50;;;;;;;4.03;1.75;;;;;;;;;;5050383;28;42708;-78
2021/12/26 07:36:17;;;;;;;2.75;1.58;;;;;;;;;;5049132;28;41564;-77
2021/12/26 07:38:44;;;;;;;4.05;1.75;;;;;;;;;;5050221;28;44222;-79
2021/12/26 07:41:26;;;;;;;4.75;1.88;;;;;;;;;;5049951;28;41917;-77
2021/12/26 07:43:52;;;;;;;3.08;1.90;;;;;;;;;;5034255;28;45933;-78
2021/12/26 07:46:19;;;;;;;3.03;1.80;;;;;;;;;;5029853;28;44975;-78
2021/12/26 07:48:46;;;;;;;2.55;1.70;;;;;;;;;;5029702;28;42537;-78
2021/12/26 07:51:13;;;;;;;4.65;1.67;;;;;;;;;;5029777;28;44210;-78
2021/12/26 07:53:39;;;;;;;3.35;1.85;;;;;;;;;;5029851;28;43573;-79
2021/12/26 07:56:06;;;;;;;2.00;1.50;;;;;;;;;;5029052;28;43151;-79
2021/12/26 07:58:34;;;;;;;2.55;1.90;;;;;;;;;;5029902;28;43325;-78
2021/12/26 08:01:00;;;;;;;2.50;1.73;;;;;;;;;;5030083;28;44584;-79
2021/12/26 08:03:28;;;;;;;4.20;1.77;;;;;;;;;;5028671;28;43180;-78
2021/12/26 08:05:54;;;;;;;2.38;1.90;;;;;;;;;;5029936;28;44868;-79
2021/12/26 08:08:21;;;;;;;3.20;1.92;;;;;;;;;;5028985;28;44702;-79
2021/12/26 08:10:47;;;;;;;2.03;1.73;;;;;;;;;;5029395;28;43923;-79
2021/12/26 08:13:15;;;;;;;3.22;1.35;;;;;;;;;;5029230;28;44289;-79
2021/12/26 08:15:41;;;;;;;2.63;1.65;;;;;;;;;;5029754;28;42159;-78
2021/12/26 08:18:08;;;;;;;2.90;1.90;;;;;;;;;;5028251;28;44942;-78
2021/12/26 08:20:35;;;;;;;4.43;2.00;;;;;;;;;;5029857;28;43618;-78
2021/12/26 08:23:02;;;;;;;3.08;1.90;;;;;;;;;;5036702;28;42950;-78
2021/12/26 08:25:29;;;;;;;3.70;2.00;;;;;;;;;;5048432;28;43851;-78
2021/12/26 08:27:55;;;;;;;4.32;2.40;;;;;;;;;;5047443;28;42548;-78
2021/12/26 08:30:22;;;;;;;3.28;2.05;;;;;;;;;;5048882;28;45544;-78
2021/12/26 08:32:53;;;;;;;6.28;2.63;;;;;;;;;;5047692;28;43883;-78
2021/12/26 08:35:19;;;;;;;5.05;2.28;;;;;;;;;;5049577;28;44961;-78
2021/12/26 08:37:47;;;;;;;2.60;1.83;;;;;;;;;;5051979;28;43954;-78
2021/12/26 08:40:14;;;;;;;3.00;1.70;;;;;;;;;;5052822;28;42838;-78
2021/12/26 08:42:41;;;;;;;3.28;1.83;;;;;;;;;;5047926;28;44901;-79
2021/12/26 08:45:08;;;;;;;2.63;1.92;;;;;;;;;;5031780;28;41795;-79
2021/12/26 08:47:34;;;;;;;3.08;2.13;;;;;;;;;;5032368;28;42693;-79
2021/12/26 08:50:02;;;;;;;3.33;2.35;;;;;;;;;;5032579;28;44905;-78
2021/12/26 08:52:29;;;;;;;3.75;2.30;;;;;;;;;;5032001;28;44710;-79
2021/12/26 08:54:55;;;;;;;2.58;1.75;;;;;;;;;;5033136;28;44942;-78
2021/12/26 08:57:22;;;;;;;3.30;2.08;;;;;;;;;;5031479;28;45034;-79
2021/12/26 08:59:49;;;;;;;4.30;2.40;;;;;;;;;;5032110;28;45655;-78
2021/12/26 09:02:15;;;;;;;3.30;2.25;;;;;;;;;;5031805;28;44948;-78
2021/12/26 09:04:42;;;;;;;7.72;2.83;;;;;;;;;;5032125;28;44866;-78
2021/12/26 09:07:09;;;;;;;4.07;2.58;;;;;;;;;;5031381;28;43677;-78
2021/12/26 09:09:37;;;;;;;2.97;2.05;;;;;;;;;;5032625;28;44031;-78
2021/12/26 09:12:04;;;;;;;4.32;2.22;;;;;;;;;;5031812;28;44940;-79
2021/12/26 09:14:32;;;;;;;3.00;2.17;;;;;;;;;;5032306;28;45004;-79
2021/12/26 09:16:59;;;;;;;2.03;1.77;;;;;;;;;;5031820;28;42872;-79
2021/12/26 09:19:28;;;;;;;3.33;1.92;;;;;;;;;;5032682;28;42381;-78
2021/12/26 09:21:54;;;;;;;;;;;;;;;;;;5031755;28;44025;-78
2021/12/26 09:24:21;;;;;;;3.10;2.15;;;;;;;;;;5051247;28;44030;-78
2021/12/26 09:26:48;;;;;;;4.05;2.00;;;;;;;;;;5051647;28;45011;-79
2021/12/26 09:29:15;;;;;;;2.55;2.00;;;;;;;;;;5051540;28;45364;-78
2021/12/26 09:31:42;;;;;;;8.63;2.00;;;;;;;;;;5051716;28;43870;-77
2021/12/26 09:34:08;;;;;;;4.68;2.40;;;;;;;;;;5051218;28;43772;-78
2021/12/26 09:36:36;;;;;;;3.40;2.42;;;;;;;;;;5052376;28;25040;-78
2021/12/26 09:39:03;;;;;;;2.55;2.35;;;;;;;;;;5052105;28;44697;-77
2021/12/26 09:41:30;;;;;;;3.60;2.27;;;;;;;;;;5050751;28;44611;-78
2021/12/26 09:43:57;;;;;;;4.55;2.50;;;;;;;;;;5037101;28;44843;-77
2021/12/26 09:46:27;;;;;;;3.25;2.30;;;;;;;;;;5030747;28;42624;-78
2021/12/26 09:48:53;;;;;;;3.00;2.28;;;;;;;;;;5031381;28;44015;-79
2021/12/26 09:51:20;;;;;;;3.25;2.30;;;;;;;;;;5031619;28;42846;-79
2021/12/26 09:53:47;;;;;;;4.53;2.40;;;;;;;;;;5031689;28;43177;-79
2021/12/26 09:56:14;;;;;;;3.78;2.45;;;;;;;;;;5030537;28;42701;-78
2021/12/26 09:58:55;;;;;;;3.13;2.20;;;;;;;;;;5049386;28;43914;-78
2021/12/26 10:01:35;;;;;;;5.45;2.65;;;;;;;;;;5050640;28;43211;-78
2021/12/26 10:04:03;;;;;;;2.85;2.30;;;;;;;;;;5049132;28;44977;-79
2021/12/26 10:06:31;;;;;;;9.18;2.90;;;;;;;;;;5048486;28;43354;-79
2021/12/26 10:08:59;;;;;;;4.13;2.58;;;;;;;;;;5049033;28;44970;-79
2021/12/26 10:11:26;;;;;;;;;;;;;;;;;;5047545;28;42751;-79
2021/12/26 10:13:54;;;;;;;5.13;2.30;;;;;;;;;;5049456;28;43331;-80
2021/12/26 10:16:24;;;;;;;4.47;2.15;;;;;;;;;;5048928;28;42744;-83
2021/12/26 10:18:51;;;;;;;3.20;2.22;;;;;;;;;;5050766;28;44898;-81
2021/12/26 10:21:28;;;;;;;4.00;2.67;;;;;;;;;;5050993;28;44760;-81
2021/12/26 10:23:56;;;;;;;3.45;2.67;;;;;;;;;;5049486;28;44922;-80
2021/12/26 10:26:24;;;;;;;3.95;2.97;;;;;;;;;;5049859;28;41780;-79
2021/12/26 10:29:07;;;;;;;4.38;2.40;;;;;;;;;;5051039;28;44968;-79
2021/12/26 10:31:41;;;;;;;4.20;2.20;;;;;;;;;;5049342;28;42922;-79
2021/12/26 10:34:13;;;;;;;3.88;2.42;;;;;;;;;;5050561;28;42243;-79
2021/12/26 10:36:44;;;;;;;3.75;2.50;;;;;;;;;;5048874;28;45880;-79
2021/12/26 10:39:13;;;;;;;4.03;2.45;;;;;;;;;;5049395;28;44186;-78
2021/12/26 10:41:46;;;;;;;3.97;2.55;;;;;;;;;;5049563;28;43628;-81
2021/12/26 10:44:23;;;;;;;3.42;2.28;;;;;;;;;;5035628;28;44907;-80
2021/12/26 10:46:53;;;;;;;4.25;2.45;;;;;;;;;;5043865;28;44834;-84
2021/12/26 10:49:40;;;;;;;2.92;2.30;;;;;;;;;;5048867;28;43704;-82
2021/12/26 10:52:11;;;;;;;5.43;2.80;;;;;;;;;;5045635;28;42648;-81
2021/12/26 10:54:41;;;;;;;3.90;2.58;;;;;;;;;;5048522;28;42641;-81
2021/12/26 10:57:13;;;;;;;2.88;2.35;;;;;;;;;;5047766;28;38587;-81
2021/12/26 10:59:40;;;;;;;;;;;;;;;;;;5047582;28;43904;-81
2021/12/26 11:02:07;;;;;;;4.70;2.72;;;;;;;;;;5047831;28;44420;-81
2021/12/26 11:04:37;;;;;;;4.13;2.30;;;;;;;;;;5048427;28;42969;-82
2021/12/26 11:07:10;;;;;;;7.03;2.50;;;;;;;;;;5047381;28;43335;-81
2021/12/26 11:09:37;;;;;;;3.95;2.45;;;;;;;;;;5046297;28;45397;-81
2021/12/26 11:12:08;;;;;;;3.53;2.33;;;;;;;;;;5047338;28;42946;-81
2021/12/26 11:14:54;;;;;;;4.65;2.60;;;;;;;;;;5029011;28;44321;-81
2021/12/26 11:17:31;;;;;;;2.95;2.65;;;;;;;;;;5029842;28;45033;-82
2021/12/26 11:19:59;;;;;;;3.03;2.55;;;;;;;;;;5029531;28;43955;-82
2021/12/26 11:22:26;;;;;;;3.63;2.80;;;;;;;;;;5032065;28;43757;-81
2021/12/26 11:24:53;;;;;;;3.38;3.08;;;;;;;;;;5049781;28;44593;-81
2021/12/26 11:27:21;;;;;;;5.38;2.67;;;;;;;;;;5048119;28;42862;-82
2021/12/26 11:29:52;;;;;;;4.85;2.60;;;;;;;;;;5049811;28;44923;-82
2021/12/26 11:32:20;;;;;;;5.03;2.83;;;;;;;;;;5048984;28;45310;-84
2021/12/26 11:34:47;;;;;;;4.10;2.75;;;;;;;;;;5049129;28;44641;-82
2021/12/26 11:37:15;;;;;;;5.25;2.60;;;;;;;;;;5048864;28;43877;-81
2021/12/26 11:39:43;;;;;;;4.83;3.10;;;;;;;;;;5049521;28;42852;-82
2021/12/26 11:42:36;;;;;;;4.47;3.10;;;;;;;;;;5047801;28;43664;-82
2021/12/26 11:45:11;;;;;;;5.03;3.28;;;;;;;;;;5029843;28;42876;-81
2021/12/26 11:48:22;;;;;;;5.13;3.50;;;;;;;;;;5028893;28;43816;-80
2021/12/26 11:51:04;;;;;;;4.97;3.05;;;;;;;;;;4949186;28;44738;-80
2021/12/26 11:53:45;;;;;;;7.55;2.97;;;;;;;;;;5025661;28;42939;-81
2021/12/26 11:56:15;;;;;;;4.43;3.45;;;;;;;;;;5027725;28;44968;-80
2021/12/26 11:58:49;;;;;;;8.45;3.80;;;;;;;;;;5029163;28;42961;-81
2021/12/26 12:01:17;;;;;;;6.95;3.25;;;;;;;;;;5028878;28;42907;-81
2021/12/26 12:03:44;;;;;;;;;;;;;;;;;;5034600;28;42695;-82
2021/12/26 12:06:24;;;;;;;4.65;3.20;;;;;;;;;;5047294;28;40284;-79
2021/12/26 12:08:50;;;;;;;6.07;3.30;;;;;;;;;;5046083;28;32451;-82
2021/12/26 12:11:17;;;;;;;5.03;3.15;;;;;;;;;;5050276;28;44584;-85
2021/12/26 12:13:44;;;;;;;5.45;3.53;;;;;;;;;;5051408;28;43102;-84
2021/12/26 12:16:32;;;;;;;5.28;3.90;;;;;;;;;;5041354;28;45208;-82
2021/12/26 12:19:00;;;;;;;5.28;3.72;;;;;;;;;;5040350;28;43912;-82
2021/12/26 12:21:30;;;;;;;5.43;3.63;;;;;;;;;;5040627;28;41901;-82
2021/12/26 12:23:59;;;;;;;7.32;4.00;;;;;;;;;;5041883;28;43968;-83
2021/12/26 12:26:43;;;;;;;5.60;4.13;;;;;;;;;;5039916;28;42919;-82
2021/12/26 12:29:11;;;;;;;7.32;4.78;;;;;;;;;;5041231;28;43864;-81
2021/12/26 12:31:38;;;;;;;4.78;3.80;;;;;;;;;;5039207;28;42654;-82
2021/12/26 12:34:07;;;;;;;5.20;4.20;;;;;;;;;;5041157;28;43970;-82
2021/12/26 12:36:36;;;;;;;7.55;4.13;;;;;;;;;;5042517;28;43798;-82
2021/12/26 12:39:13;;;;;;;5.03;3.72;;;;;;;;;;5039905;28;42915;-81
2021/12/26 12:41:45;;;;;;;5.57;4.45;;;;;;;;;;5039770;28;44573;-82
2021/12/26 12:44:50;;;;;;;5.65;3.95;;;;;;;;;;5038168;28;43783;-82
2021/12/26 12:47:24;;;;;;;5.72;3.70;;;;;;;;;;4985954;28;45260;-82
2021/12/26 12:49:55;;;;;;;8.23;5.00;;;;;;;;;;4987732;28;43469;-82
2021/12/26 12:52:37;;;;;;;10.23;4.57;;;;;;;;;;5016036;28;42621;-82
2021/12/26 12:55:05;;;;;;;5.80;4.53;;;;;;;;;;5041108;28;44009;-82
2021/12/26 12:57:34;;;;;;;6.20;4.30;;;;;;;;;;5039824;28;42880;-82
2021/12/26 13:00:03;;;;;;;5.18;4.28;;;;;;;;;;5040758;28;43593;-82
2021/12/26 13:02:45;;;;;;;7.47;4.40;;;;;;;;;;5039275;28;43426;-82
2021/12/26 13:05:12;;;;;;;6.95;4.75;;;;;;;;;;5039936;28;42572;-82
2021/12/26 13:07:39;;;;;;;5.93;4.30;;;;;;;;;;5038579;28;44969;-82
2021/12/26 13:10:13;;;;;;;6.95;4.60;;;;;;;;;;5039648;28;44776;-82
2021/12/26 13:12:40;;;;;;;11.43;4.30;;;;;;;;;;5029015;28;44591;-83
2021/12/26 13:15:07;;;;;;;6.97;4.45;;;;;;;;;;5029791;28;44857;-82
2021/12/26 13:17:36;;;;;;;6.82;4.35;;;;;;;;;;5028524;28;42898;-82
2021/12/26 13:20:04;;;;;;;5.80;4.05;;;;;;;;;;5030558;28;44695;-82
2021/12/26 13:23:04;;;;;;;6.13;4.43;;;;;;;;;;5033619;28;43948;-82
2021/12/26 13:25:39;;;;;;;7.93;4.50;;;;;;;;;;5018169;28;44731;-82
2021/12/26 13:28:15;;;;;;;7.57;4.97;;;;;;;;;;5051011;28;43055;-82
2021/12/26 13:30:42;;;;;;;6.80;4.57;;;;;;;;;;5051093;28;42982;-82
2021/12/26 13:33:16;;;;;;;7.40;4.68;;;;;;;;;;5050383;28;44643;-82
2021/12/26 13:35:43;;;;;;;6.25;4.68;;;;;;;;;;5050292;28;44900;-83
2021/12/26 13:38:10;;;;;;;7.30;4.65;;;;;;;;;;5049808;28;44436;-83
2021/12/26 13:40:40;;;;;;;6.38;4.50;;;;;;;;;;5050069;28;42586;-83
2021/12/26 13:43:07;;;;;;;9.68;5.95;;;;;;;;;;5040943;28;42915;-83
2021/12/26 13:45:37;;;;;;;6.63;4.40;;;;;;;;;;5043390;28;45024;-84
2021/12/26 13:48:05;;;;;;;7.15;4.80;;;;;;;;;;5042834;28;43940;-83
2021/12/26 13:50:32;;;;;;;8.43;5.30;;;;;;;;;;5041686;28;42883;-83
2021/12/26 13:53:00;;;;;;;7.30;5.30;;;;;;;;;;5039803;28;44745;-82
2021/12/26 13:55:27;;;;;;;8.90;5.20;;;;;;;;;;5038952;28;43960;-82
2021/12/26 13:57:57;;;;;;;7.72;5.20;;;;;;;;;;5039173;28;43785;-82
2021/12/26 14:00:24;;;;;;;6.60;4.85;;;;;;;;;;5038435;28;44657;-82
2021/12/26 14:02:51;;;;;;;9.82;5.43;;;;;;;;;;5037997;28;44920;-83
2021/12/26 14:05:20;;;;;;;10.10;5.38;;;;;;;;;;5040878;28;45068;-82
2021/12/26 14:07:58;;;;;;;8.70;5.18;;;;;;;;;;5038550;28;42876;-82
2021/12/26 14:10:26;;;;;;;7.25;5.10;;;;;;;;;;5038647;28;20090;-82
2021/12/26 14:12:55;;;;;;;7.88;5.45;;;;;;;;;;5038701;28;42819;-82
2021/12/26 14:15:34;;;;;;;7.65;5.32;;;;;;;;;;5039511;28;43986;-82
2021/12/26 14:18:07;;;;;;;7.05;4.82;;;;;;;;;;5037966;28;44939;-82
2021/12/26 14:20:52;;;;;;;8.07;5.47;;;;;;;;;;5039172;28;45399;-82
2021/12/26 14:23:21;;;;;;;9.13;4.72;;;;;;;;;;5037697;28;43927;-82
2021/12/26 14:25:49;;;;;;;7.75;4.75;;;;;;;;;;5038872;28;43518;-83
2021/12/26 14:28:16;;;;;;;8.48;4.70;;;;;;;;;;5038086;28;43627;-83
2021/12/26 14:30:48;;;;;;;6.35;4.90;;;;;;;;;;5038812;28;43144;-83
2021/12/26 14:33:15;;;;;;;9.02;5.35;;;;;;;;;;5037485;28;42533;-83
2021/12/26 14:35:44;;;;;;;7.68;5.20;;;;;;;;;;5037681;28;43436;-82
2021/12/26 14:38:12;;;;;;;8.48;5.13;;;;;;;;;;5035297;28;45555;-83
2021/12/26 14:40:39;;;;;;;;;;;;;;;;;;5039029;28;43621;-82
2021/12/26 14:43:08;;;;;;;8.75;5.40;;;;;;;;;;5037886;28;42569;-82
2021/12/26 14:45:34;;;;;;;;;;;;;;;;;;5039204;28;44981;-82
2021/12/26 14:48:01;;;;;;;7.68;5.00;;;;;;;;;;4913359;28;42343;-81
2021/12/26 14:52:04;;;;;;;22.05;5.10;;;;;;;;;;4961223;27;20211;-80
2021/12/26 14:54:34;;;;;;;10.18;5.80;;;;;;;;;;4856511;27;30488;-81
2021/12/26 14:57:02;;;;;;;7.43;5.72;;;;;;;;;;5090311;28;42654;-80
2021/12/26 14:59:30;;;;;;;7.63;5.53;;;;;;;;;;5083093;28;44763;-81
2021/12/26 15:02:05;;;;;;;10.52;6.22;;;;;;;;;;5083709;28;43516;-83
2021/12/26 15:04:32;;;;;;;6.97;5.65;;;;;;;;;;5084790;28;43072;-82